sensor_id;sensor_type;location;lat;lon;timestamp;pressure;altitude;pressure_sealevel;temperature;humidity
10145;BME280;5113;41.822;23.564;2022-07-23T00:02:06;-11376.09;;;15.96;100.00
10145;BME280;5113;41.822;23.564;2022-07-23T00:05:12;-11373.56;;;15.87;100.00
10145;BME280;5113;41.822;23.564;2022-07-23T00:08:20;-11390.47;;;16.47;100.00
10145;BME280;5113;41.822;23.564;2022-07-23T00:11:26;-11363.13;;;15.49;100.00
10145;BME280;5113;41.822;23.564;2022-07-23T00:14:33;-11384.81;;;16.27;100.00
10145;BME280;5113;41.822;23.564;2022-07-23T00:17:39;-11375.53;;;15.94;100.00
10145;BME280;5113;41.822;23.564;2022-07-23T00:20:45;-11394.53;;;16.62;100.00
10145;BME280;5113;41.822;23.564;2022-07-23T00:23:53;-11381.59;;;16.15;100.00
10145;BME280;5113;41.822;23.564;2022-07-23T00:26:59;-11385.94;;;16.31;100.00
10145;BME280;5113;41.822;23.564;2022-07-23T00:30:06;-11361.16;;;15.42;100.00
10145;BME280;5113;41.822;23.564;2022-07-23T00:33:13;-11357.78;;;15.30;100.00
10145;BME280;5113;41.822;23.564;2022-07-23T00:36:19;-11374.13;;;15.89;100.00
10145;BME280;5113;41.822;23.564;2022-07-23T00:39:26;-11377.06;;;15.99;100.00
10145;BME280;5113;41.822;23.564;2022-07-23T00:42:32;-11360.88;;;15.41;100.00
10145;BME280;5113;41.822;23.564;2022-07-23T00:45:38;-11364.81;;;15.55;100.00
10145;BME280;5113;41.822;23.564;2022-07-23T00:48:45;-11353.41;;;15.14;100.00
10145;BME280;5113;41.822;23.564;2022-07-23T00:51:52;-11378.06;;;16.03;100.00
10145;BME280;5113;41.822;23.564;2022-07-23T00:55:00;-11362.00;;;15.45;100.00
10145;BME280;5113;41.822;23.564;2022-07-23T00:58:08;-11372.28;;;15.82;100.00
10145;BME280;5113;41.822;23.564;2022-07-23T01:01:14;-11351.28;;;15.06;100.00
10145;BME280;5113;41.822;23.564;2022-07-23T01:04:21;-11357.78;;;15.30;100.00
10145;BME280;5113;41.822;23.564;2022-07-23T01:07:27;-11343.13;;;14.77;100.00
10145;BME280;5113;41.822;23.564;2022-07-23T01:10:35;-11364.09;;;15.52;100.00
10145;BME280;5113;41.822;23.564;2022-07-23T01:13:43;-11353.69;;;15.15;100.00
10145;BME280;5113;41.822;23.564;2022-07-23T01:16:49;-11349.75;;;15.01;100.00
10145;BME280;5113;41.822;23.564;2022-07-23T01:19:55;-11344.09;;;14.80;100.00
10145;BME280;5113;41.822;23.564;2022-07-23T01:23:03;-11341.72;;;14.72;100.00
10145;BME280;5113;41.822;23.564;2022-07-23T01:26:10;-11342.56;;;14.75;100.00
10145;BME280;5113;41.822;23.564;2022-07-23T01:29:16;-11335.94;;;14.51;100.00
10145;BME280;5113;41.822;23.564;2022-07-23T01:32:23;-11359.59;;;15.36;100.00
10145;BME280;5113;41.822;23.564;2022-07-23T01:35:29;-11343.41;;;14.78;100.00
10145;BME280;5113;41.822;23.564;2022-07-23T01:38:37;-11335.22;;;14.48;100.00
10145;BME280;5113;41.822;23.564;2022-07-23T01:41:43;-11339.31;;;14.63;100.00
10145;BME280;5113;41.822;23.564;2022-07-23T01:44:55;-11341.56;;;14.71;100.00
10145;BME280;5113;41.822;23.564;2022-07-23T01:48:02;-11337.34;;;14.56;100.00
10145;BME280;5113;41.822;23.564;2022-07-23T01:51:14;-11323.81;;;14.07;100.00
10145;BME280;5113;41.822;23.564;2022-07-23T01:54:22;-11315.38;;;13.77;100.00
10145;BME280;5113;41.822;23.564;2022-07-23T01:57:28;-11298.34;;;13.15;100.00
10145;BME280;5113;41.822;23.564;2022-07-23T02:00:36;-11305.25;;;13.40;100.00
10145;BME280;5113;41.822;23.564;2022-07-23T02:03:42;-11310.16;;;13.58;100.00
10145;BME280;5113;41.822;23.564;2022-07-23T02:06:49;-11315.25;;;13.76;100.00
10145;BME280;5113;41.822;23.564;2022-07-23T02:09:57;-11337.22;;;14.56;100.00
10145;BME280;5113;41.822;23.564;2022-07-23T02:13:04;-11347.63;;;14.93;100.00
10145;BME280;5113;41.822;23.564;2022-07-23T02:16:10;-11340.59;;;14.68;100.00
10145;BME280;5113;41.822;23.564;2022-07-23T02:19:16;-11334.94;;;14.47;100.00
10145;BME280;5113;41.822;23.564;2022-07-23T02:22:22;-11332.69;;;14.39;100.00
10145;BME280;5113;41.822;23.564;2022-07-23T02:25:30;-11333.56;;;14.42;100.00
10145;BME280;5113;41.822;23.564;2022-07-23T02:28:36;-11328.75;;;14.25;100.00
10145;BME280;5113;41.822;23.564;2022-07-23T02:31:43;-11347.22;;;14.92;100.00
10145;BME280;5113;41.822;23.564;2022-07-23T02:34:50;-11345.81;;;14.86;100.00
10145;BME280;5113;41.822;23.564;2022-07-23T02:37:57;-11338.63;;;14.61;100.00
10145;BME280;5113;41.822;23.564;2022-07-23T02:41:04;-11323.97;;;14.08;100.00
10145;BME280;5113;41.822;23.564;2022-07-23T02:44:10;-11336.38;;;14.52;100.00
10145;BME280;5113;41.822;23.564;2022-07-23T02:47:16;-11344.66;;;14.82;100.00
10145;BME280;5113;41.822;23.564;2022-07-23T02:50:23;-11326.50;;;14.17;100.00
10145;BME280;5113;41.822;23.564;2022-07-23T02:53:29;-11331.00;;;14.33;100.00
10145;BME280;5113;41.822;23.564;2022-07-23T02:56:36;-11334.66;;;14.46;100.00
10145;BME280;5113;41.822;23.564;2022-07-23T02:59:43;-11333.28;;;14.41;100.00
10145;BME280;5113;41.822;23.564;2022-07-23T03:02:50;-11316.66;;;13.81;100.00
10145;BME280;5113;41.822;23.564;2022-07-23T03:05:56;-11301.88;;;13.28;100.00
10145;BME280;5113;41.822;23.564;2022-07-23T03:09:02;-11297.78;;;13.13;100.00
10145;BME280;5113;41.822;23.564;2022-07-23T03:12:10;-11300.19;;;13.22;100.00
10145;BME280;5113;41.822;23.564;2022-07-23T03:15:18;-11295.94;;;13.07;100.00
10145;BME280;5113;41.822;23.564;2022-07-23T03:18:24;-11296.09;;;13.07;100.00
10145;BME280;5113;41.822;23.564;2022-07-23T03:21:30;-11302.28;;;13.30;100.00
10145;BME280;5113;41.822;23.564;2022-07-23T03:24:36;-11299.06;;;13.18;100.00
10145;BME280;5113;41.822;23.564;2022-07-23T03:28:01;-11307.91;;;13.50;100.00
10145;BME280;5113;41.822;23.564;2022-07-23T03:31:07;-11296.22;;;13.08;100.00
10145;BME280;5113;41.822;23.564;2022-07-23T03:34:14;-11283.41;;;12.62;100.00
10145;BME280;5113;41.822;23.564;2022-07-23T03:37:20;-11285.97;;;12.71;100.00
10145;BME280;5113;41.822;23.564;2022-07-23T03:40:27;-11289.34;;;12.83;100.00
10145;BME280;5113;41.822;23.564;2022-07-23T03:43:34;-11291.03;;;12.89;100.00
10145;BME280;5113;41.822;23.564;2022-07-23T03:46:41;-11289.34;;;12.83;100.00
10145;BME280;5113;41.822;23.564;2022-07-23T03:49:47;-11302.28;;;13.30;100.00
10145;BME280;5113;41.822;23.564;2022-07-23T03:52:53;-11329.03;;;14.26;100.00
10145;BME280;5113;41.822;23.564;2022-07-23T03:55:59;-11335.09;;;14.48;100.00
10145;BME280;5113;41.822;23.564;2022-07-23T03:59:07;-11334.09;;;14.44;100.00
10145;BME280;5113;41.822;23.564;2022-07-23T04:02:14;-11343.13;;;14.77;100.00
10145;BME280;5113;41.822;23.564;2022-07-23T04:05:21;-11330.16;;;14.30;100.00
10145;BME280;5113;41.822;23.564;2022-07-23T04:08:27;-11338.63;;;14.61;100.00
10145;BME280;5113;41.822;23.564;2022-07-23T04:11:34;-11331.72;;;14.36;100.00
10145;BME280;5113;41.822;23.564;2022-07-23T04:14:41;-11337.50;;;14.57;100.00
10145;BME280;5113;41.822;23.564;2022-07-23T04:17:47;-11342.69;;;14.75;100.00
10145;BME280;5113;41.822;23.564;2022-07-23T04:20:54;-11347.06;;;14.91;100.00
10145;BME280;5113;41.822;23.564;2022-07-23T04:24:01;-11349.75;;;15.01;100.00
10145;BME280;5113;41.822;23.564;2022-07-23T04:27:07;-11344.66;;;14.82;100.00
10145;BME280;5113;41.822;23.564;2022-07-23T04:30:15;-11342.69;;;14.75;100.00
10145;BME280;5113;41.822;23.564;2022-07-23T04:33:21;-11346.50;;;14.89;100.00
10145;BME280;5113;41.822;23.564;2022-07-23T04:36:28;-11355.78;;;15.23;100.00
10145;BME280;5113;41.822;23.564;2022-07-23T04:39:34;-11377.22;;;16.00;100.00
10145;BME280;5113;41.822;23.564;2022-07-23T04:42:40;-11390.88;;;16.49;100.00
10145;BME280;5113;41.822;23.564;2022-07-23T04:45:48;-11383.00;;;16.21;100.00
10145;BME280;5113;41.822;23.564;2022-07-23T04:48:54;-11388.75;;;16.41;100.00
10145;BME280;5113;41.822;23.564;2022-07-23T04:52:00;-11392.00;;;16.53;100.00
10145;BME280;5113;41.822;23.564;2022-07-23T04:55:07;-11396.25;;;16.68;100.00
10145;BME280;5113;41.822;23.564;2022-07-23T04:58:13;-11390.19;;;16.46;100.00
10145;BME280;5113;41.822;23.564;2022-07-23T05:01:21;-11391.88;;;16.52;100.00
10145;BME280;5113;41.822;23.564;2022-07-23T05:04:27;-11397.66;;;16.73;100.00
10145;BME280;5113;41.822;23.564;2022-07-23T05:07:34;-11411.59;;;17.24;100.00
10145;BME280;5113;41.822;23.564;2022-07-23T05:10:40;-11417.22;;;17.44;100.00
10145;BME280;5113;41.822;23.564;2022-07-23T05:13:47;-11437.13;;;18.15;98.88
10145;BME280;5113;41.822;23.564;2022-07-23T05:16:54;-11430.06;;;17.90;99.93
10145;BME280;5113;41.822;23.564;2022-07-23T05:20:01;-11448.53;;;18.57;95.44
10145;BME280;5113;41.822;23.564;2022-07-23T05:23:08;-11455.03;;;18.80;92.35
10145;BME280;5113;41.822;23.564;2022-07-23T05:26:14;-11438.09;;;18.19;91.44
10145;BME280;5113;41.822;23.564;2022-07-23T05:29:21;-11456.56;;;18.86;88.60
10145;BME280;5113;41.822;23.564;2022-07-23T05:32:31;-11462.78;;;19.08;86.42
10145;BME280;5113;41.822;23.564;2022-07-23T05:35:37;-11478.16;;;19.63;81.72
10145;BME280;5113;41.822;23.564;2022-07-23T05:38:43;-11455.31;;;18.81;86.94
10145;BME280;5113;41.822;23.564;2022-07-23T05:41:50;-11477.03;;;19.59;85.36
10145;BME280;5113;41.822;23.564;2022-07-23T05:44:56;-11481.09;;;19.74;82.20
10145;BME280;5113;41.822;23.564;2022-07-23T05:48:04;-11489.00;;;20.02;80.75
10145;BME280;5113;41.822;23.564;2022-07-23T05:51:11;-11480.41;;;19.71;84.55
10145;BME280;5113;41.822;23.564;2022-07-23T05:54:17;-11495.06;;;20.24;82.03
10145;BME280;5113;41.822;23.564;2022-07-23T05:57:23;-11486.91;;;19.95;83.69
10145;BME280;5113;41.822;23.564;2022-07-23T06:00:29;-11485.75;;;19.91;81.72
10145;BME280;5113;41.822;23.564;2022-07-23T06:03:37;-11515.53;;;20.98;68.50
10145;BME280;5113;41.822;23.564;2022-07-23T06:06:43;-11515.66;;;20.98;66.81
10145;BME280;5113;41.822;23.564;2022-07-23T06:09:50;-11535.69;;;21.70;64.82
10145;BME280;5113;41.822;23.564;2022-07-23T06:12:56;-11536.28;;;21.72;65.08
10145;BME280;5113;41.822;23.564;2022-07-23T06:16:06;-11537.69;;;21.78;63.54
10145;BME280;5113;41.822;23.564;2022-07-23T06:19:14;-11545.16;;;22.04;62.22
10145;BME280;5113;41.822;23.564;2022-07-23T06:22:20;-11556.44;;;22.45;61.83
10145;BME280;5113;41.822;23.564;2022-07-23T06:25:27;-11564.34;;;22.73;58.94
10145;BME280;5113;41.822;23.564;2022-07-23T06:28:34;-11554.06;;;22.36;59.24
10145;BME280;5113;41.822;23.564;2022-07-23T06:31:40;-11554.91;;;22.39;59.14
10145;BME280;5113;41.822;23.564;2022-07-23T06:34:47;-11562.66;;;22.67;58.99
10145;BME280;5113;41.822;23.564;2022-07-23T06:37:54;-11578.47;;;23.24;58.20
10145;BME280;5113;41.822;23.564;2022-07-23T06:41:00;-11597.22;;;23.92;58.23
10145;BME280;5113;41.822;23.564;2022-07-23T06:44:06;-11585.38;;;23.49;54.24
10145;BME280;5113;41.822;23.564;2022-07-23T06:47:13;-11599.50;;;24.00;53.58
10145;BME280;5113;41.822;23.564;2022-07-23T06:50:20;-11597.53;;;23.93;49.90
10145;BME280;5113;41.822;23.564;2022-07-23T06:53:26;-11605.13;;;24.20;45.59
10145;BME280;5113;41.822;23.564;2022-07-23T06:56:33;-11619.97;;;24.74;48.29
10145;BME280;5113;41.822;23.564;2022-07-23T06:59:39;-11606.97;;;24.27;46.03
10145;BME280;5113;41.822;23.564;2022-07-23T07:02:45;-11624.91;;;24.91;43.71
10145;BME280;5113;41.822;23.564;2022-07-23T07:05:53;-11632.53;;;25.19;43.82
10145;BME280;5113;41.822;23.564;2022-07-23T07:08:59;-11633.09;;;25.21;41.70
10145;BME280;5113;41.822;23.564;2022-07-23T07:12:07;-11637.75;;;25.38;42.39
10145;BME280;5113;41.822;23.564;2022-07-23T07:15:13;-11644.81;;;25.63;42.40
10145;BME280;5113;41.822;23.564;2022-07-23T07:18:20;-11628.88;;;25.06;43.72
10145;BME280;5113;41.822;23.564;2022-07-23T07:21:28;-11652.03;;;25.89;42.35
10145;BME280;5113;41.822;23.564;2022-07-23T07:24:34;-11653.44;;;25.94;42.34
10145;BME280;5113;41.822;23.564;2022-07-23T07:27:42;-11673.19;;;26.65;40.83
10145;BME280;5113;41.822;23.564;2022-07-23T07:30:49;-11668.97;;;26.50;41.87
10145;BME280;5113;41.822;23.564;2022-07-23T07:33:56;-11681.66;;;26.95;40.14
10145;BME280;5113;41.822;23.564;2022-07-23T07:37:04;-11676.16;;;26.76;41.03
10145;BME280;5113;41.822;23.564;2022-07-23T07:40:12;-11696.06;;;27.47;41.96
10145;BME280;5113;41.822;23.564;2022-07-23T07:43:18;-11709.91;;;27.97;39.63
10145;BME280;5113;41.822;23.564;2022-07-23T07:46:24;-11711.47;;;28.03;41.27
10145;BME280;5113;41.822;23.564;2022-07-23T07:49:32;-11699.19;;;27.58;40.45
10145;BME280;5113;41.822;23.564;2022-07-23T07:52:40;-11718.41;;;28.27;39.87
10145;BME280;5113;41.822;23.564;2022-07-23T07:55:47;-11712.19;;;28.05;43.32
10145;BME280;5113;41.822;23.564;2022-07-23T07:58:55;-11702.87;;;27.72;40.74
10145;BME280;5113;41.822;23.564;2022-07-23T08:02:02;-11722.22;;;28.41;40.78
10145;BME280;5113;41.822;23.564;2022-07-23T08:05:09;-11718.97;;;28.30;40.39
10145;BME280;5113;41.822;23.564;2022-07-23T08:08:17;-11732.25;;;28.77;40.14
10145;BME280;5113;41.822;23.564;2022-07-23T08:11:23;-11730.25;;;28.70;40.50
10145;BME280;5113;41.822;23.564;2022-07-23T08:14:30;-11746.94;;;29.30;40.06
10145;BME280;5113;41.822;23.564;2022-07-23T08:17:36;-11753.56;;;29.54;39.42
10145;BME280;5113;41.822;23.564;2022-07-23T08:20:43;-11724.06;;;28.48;39.64
10145;BME280;5113;41.822;23.564;2022-07-23T08:23:51;-11735.22;;;28.88;38.91
10145;BME280;5113;41.822;23.564;2022-07-23T08:26:57;-11741.00;;;29.09;38.55
10145;BME280;5113;41.822;23.564;2022-07-23T08:30:04;-11748.50;;;29.36;38.33
10145;BME280;5113;41.822;23.564;2022-07-23T08:33:12;-11759.38;;;29.75;37.95
10145;BME280;5113;41.822;23.564;2022-07-23T08:36:38;-11759.09;;;29.74;38.60
10145;BME280;5113;41.822;23.564;2022-07-23T08:39:46;-11780.28;;;30.50;38.06
10145;BME280;5113;41.822;23.564;2022-07-23T08:42:52;-11768.41;;;30.07;37.40
10145;BME280;5113;41.822;23.564;2022-07-23T08:45:59;-11771.25;;;30.17;38.05
10145;BME280;5113;41.822;23.564;2022-07-23T08:49:06;-11770.09;;;30.13;38.07
10145;BME280;5113;41.822;23.564;2022-07-23T08:52:13;-11770.66;;;30.15;37.84
10145;BME280;5113;41.822;23.564;2022-07-23T08:55:22;-11803.72;;;31.34;37.61
10145;BME280;5113;41.822;23.564;2022-07-23T08:58:30;-11786.06;;;30.71;37.53
10145;BME280;5113;41.822;23.564;2022-07-23T09:01:36;-11783.41;;;30.61;36.29
10145;BME280;5113;41.822;23.564;2022-07-23T09:04:42;-11780.84;;;30.52;37.78
10145;BME280;5113;41.822;23.564;2022-07-23T09:08:06;-11794.97;;;31.03;35.96
10145;BME280;5113;41.822;23.564;2022-07-23T09:11:16;-11798.94;;;31.17;35.42
10145;BME280;5113;41.822;23.564;2022-07-23T09:14:36;-11782.25;;;30.57;35.19
10145;BME280;5113;41.822;23.564;2022-07-23T09:17:42;-11808.53;;;31.51;33.01
10145;BME280;5113;41.822;23.564;2022-07-23T09:20:48;-11834.53;;;32.45;32.40
10145;BME280;5113;41.822;23.564;2022-07-23T09:23:57;-11834.69;;;32.45;30.82
10145;BME280;5113;41.822;23.564;2022-07-23T09:27:05;-11835.81;;;32.49;29.83
10145;BME280;5113;41.822;23.564;2022-07-23T09:30:11;-11819.84;;;31.92;29.88
10145;BME280;5113;41.822;23.564;2022-07-23T09:33:18;-11841.03;;;32.68;28.85
10145;BME280;5113;41.822;23.564;2022-07-23T09:36:34;-11856.31;;;33.23;28.41
10145;BME280;5113;41.822;23.564;2022-07-23T09:39:41;-11847.84;;;32.93;26.91
10145;BME280;5113;41.822;23.564;2022-07-23T09:42:56;-11873.97;;;33.87;27.99
10145;BME280;5113;41.822;23.564;2022-07-23T09:46:19;-11876.38;;;33.95;26.65
10145;BME280;5113;41.822;23.564;2022-07-23T09:49:26;-11895.88;;;34.65;25.84
10145;BME280;5113;41.822;23.564;2022-07-23T09:52:35;-11891.66;;;34.50;26.99
10145;BME280;5113;41.822;23.564;2022-07-23T09:55:41;-11871.72;;;33.78;22.64
10145;BME280;5113;41.822;23.564;2022-07-23T09:58:50;-11898.84;;;34.76;23.80
10145;BME280;5113;41.822;23.564;2022-07-23T10:01:58;-11876.66;;;33.96;23.17
10145;BME280;5113;41.822;23.564;2022-07-23T10:05:06;-11902.38;;;34.89;22.27
10145;BME280;5113;41.822;23.564;2022-07-23T10:08:12;-11901.81;;;34.87;22.04
10145;BME280;5113;41.822;23.564;2022-07-23T10:11:19;-11898.28;;;34.74;22.21
10145;BME280;5113;41.822;23.564;2022-07-23T10:14:27;-11871.28;;;33.77;22.13
10145;BME280;5113;41.822;23.564;2022-07-23T10:17:36;-11895.75;;;34.65;23.14
10145;BME280;5113;41.822;23.564;2022-07-23T10:20:44;-11893.91;;;34.58;22.67
10145;BME280;5113;41.822;23.564;2022-07-23T10:24:04;-11916.81;;;35.40;22.51
10145;BME280;5113;41.822;23.564;2022-07-23T10:31:02;-11922.16;;;35.60;21.86
10145;BME280;5113;41.822;23.564;2022-07-23T10:34:15;-11924.56;;;35.68;20.79
10145;BME280;5113;41.822;23.564;2022-07-23T10:37:30;-11917.94;;;35.45;20.69
10145;BME280;5113;41.822;23.564;2022-07-23T10:40:53;-11915.09;;;35.34;20.95
10145;BME280;5113;41.822;23.564;2022-07-23T10:44:08;-11921.88;;;35.59;20.80
10145;BME280;5113;41.822;23.564;2022-07-23T10:47:26;-11917.78;;;35.44;22.10
10145;BME280;5113;41.822;23.564;2022-07-23T10:51:08;-11907.47;;;35.07;21.15
10145;BME280;5113;41.822;23.564;2022-07-23T10:54:21;-11929.94;;;35.88;22.01
10145;BME280;5113;41.822;23.564;2022-07-23T10:57:28;-11913.69;;;35.29;20.83
10145;BME280;5113;41.822;23.564;2022-07-23T11:00:35;-11930.66;;;35.90;21.10
10145;BME280;5113;41.822;23.564;2022-07-23T11:03:56;-11906.34;;;35.03;20.37
10145;BME280;5113;41.822;23.564;2022-07-23T11:07:08;-11950.44;;;36.61;22.35
10145;BME280;5113;41.822;23.564;2022-07-23T11:10:32;-11944.78;;;36.41;19.65
10145;BME280;5113;41.822;23.564;2022-07-23T11:13:41;-11931.34;;;35.93;20.72
10145;BME280;5113;41.822;23.564;2022-07-23T11:16:48;-11949.88;;;36.59;20.59
10145;BME280;5113;41.822;23.564;2022-07-23T11:20:14;-11909.59;;;35.15;20.99
10145;BME280;5113;41.822;23.564;2022-07-23T11:23:21;-11920.19;;;35.53;21.24
10145;BME280;5113;41.822;23.564;2022-07-23T11:26:58;-11943.66;;;36.37;21.31
10145;BME280;5113;41.822;23.564;2022-07-23T11:30:07;-11912.56;;;35.25;22.14
10145;BME280;5113;41.822;23.564;2022-07-23T11:33:19;-11927.56;;;35.79;20.95
10145;BME280;5113;41.822;23.564;2022-07-23T11:36:27;-11926.00;;;35.73;22.08
10145;BME280;5113;41.822;23.564;2022-07-23T11:39:34;-11938.16;;;36.17;20.72
10145;BME280;5113;41.822;23.564;2022-07-23T11:42:52;-11951.84;;;36.66;20.45
10145;BME280;5113;41.822;23.564;2022-07-23T11:45:59;-11958.94;;;36.92;21.29
10145;BME280;5113;41.822;23.564;2022-07-23T11:49:06;-11956.53;;;36.83;20.96
10145;BME280;5113;41.822;23.564;2022-07-23T11:52:14;-11951.00;;;36.63;21.35
10145;BME280;5113;41.822;23.564;2022-07-23T11:55:21;-11969.66;;;37.30;21.10
10145;BME280;5113;41.822;23.564;2022-07-23T11:58:28;-11954.25;;;36.75;20.73
10145;BME280;5113;41.822;23.564;2022-07-23T12:01:35;-11952.13;;;36.67;21.39
10145;BME280;5113;41.822;23.564;2022-07-23T12:04:46;-11949.44;;;36.58;21.51
10145;BME280;5113;41.822;23.564;2022-07-23T12:07:56;-11932.34;;;35.96;22.11
10145;BME280;5113;41.822;23.564;2022-07-23T12:11:03;-11933.47;;;36.00;21.73
10145;BME280;5113;41.822;23.564;2022-07-23T12:14:11;-11939.56;;;36.22;20.17
10145;BME280;5113;41.822;23.564;2022-07-23T12:17:18;-11931.78;;;35.94;21.11
10145;BME280;5113;41.822;23.564;2022-07-23T12:20:26;-11954.81;;;36.77;21.68
10145;BME280;5113;41.822;23.564;2022-07-23T12:23:34;-11950.44;;;36.61;20.91
10145;BME280;5113;41.822;23.564;2022-07-23T12:27:09;-11934.31;;;36.03;22.36
10145;BME280;5113;41.822;23.564;2022-07-23T12:30:20;-11947.06;;;36.49;22.47
10145;BME280;5113;41.822;23.564;2022-07-23T12:33:28;-11972.78;;;37.42;21.05
10145;BME280;5113;41.822;23.564;2022-07-23T12:36:38;-11934.31;;;36.03;21.29
10145;BME280;5113;41.822;23.564;2022-07-23T12:39:47;-11956.25;;;36.82;21.94
10145;BME280;5113;41.822;23.564;2022-07-23T12:42:55;-11946.19;;;36.46;22.17
10145;BME280;5113;41.822;23.564;2022-07-23T12:46:04;-11937.56;;;36.15;22.60
10145;BME280;5113;41.822;23.564;2022-07-23T12:49:25;-11948.88;;;36.56;21.30
10145;BME280;5113;41.822;23.564;2022-07-23T12:52:34;-11957.78;;;36.88;21.12
10145;BME280;5113;41.822;23.564;2022-07-23T12:55:42;-11954.13;;;36.75;21.97
10145;BME280;5113;41.822;23.564;2022-07-23T12:59:10;-11918.34;;;35.46;22.89
10145;BME280;5113;41.822;23.564;2022-07-23T13:02:19;-11949.88;;;36.59;21.97
10145;BME280;5113;41.822;23.564;2022-07-23T13:05:25;-11956.66;;;36.84;20.80
10145;BME280;5113;41.822;23.564;2022-07-23T13:08:34;-11956.81;;;36.84;21.71
10145;BME280;5113;41.822;23.564;2022-07-23T13:11:43;-11964.00;;;37.10;21.08
10145;BME280;5113;41.822;23.564;2022-07-23T13:14:51;-11952.69;;;36.69;21.13
10145;BME280;5113;41.822;23.564;2022-07-23T13:17:57;-11951.72;;;36.66;21.30
10145;BME280;5113;41.822;23.564;2022-07-23T13:21:04;-11948.47;;;36.54;22.31
10145;BME280;5113;41.822;23.564;2022-07-23T13:24:11;-11961.19;;;37.00;21.79
10145;BME280;5113;41.822;23.564;2022-07-23T13:27:20;-11947.19;;;36.50;21.80
10145;BME280;5113;41.822;23.564;2022-07-23T13:30:27;-11967.69;;;37.23;20.94
10145;BME280;5113;41.822;23.564;2022-07-23T13:33:35;-11958.66;;;36.91;21.03
10145;BME280;5113;41.822;23.564;2022-07-23T13:36:41;-11977.00;;;37.57;21.54
10145;BME280;5113;41.822;23.564;2022-07-23T13:39:48;-11922.47;;;35.61;21.47
10145;BME280;5113;41.822;23.564;2022-07-23T13:42:57;-11965.13;;;37.14;21.21
10145;BME280;5113;41.822;23.564;2022-07-23T13:46:03;-11925.28;;;35.71;21.68
10145;BME280;5113;41.822;23.564;2022-07-23T13:49:10;-11936.03;;;36.10;21.01
10145;BME280;5113;41.822;23.564;2022-07-23T13:52:17;-11946.91;;;36.49;20.55
10145;BME280;5113;41.822;23.564;2022-07-23T13:55:23;-11947.75;;;36.52;21.40
10145;BME280;5113;41.822;23.564;2022-07-23T13:58:32;-11948.31;;;36.54;21.58
10145;BME280;5113;41.822;23.564;2022-07-23T14:01:39;-11964.00;;;37.10;21.45
10145;BME280;5113;41.822;23.564;2022-07-23T14:05:06;-11956.94;;;36.85;20.99
10145;BME280;5113;41.822;23.564;2022-07-23T14:08:14;-11958.66;;;36.91;21.14
10145;BME280;5113;41.822;23.564;2022-07-23T14:11:20;-11957.78;;;36.88;21.25
10145;BME280;5113;41.822;23.564;2022-07-23T14:14:30;-11945.91;;;36.45;21.62
10145;BME280;5113;41.822;23.564;2022-07-23T14:17:38;-11932.91;;;35.98;21.77
10145;BME280;5113;41.822;23.564;2022-07-23T14:20:47;-11926.69;;;35.76;21.42
10145;BME280;5113;41.822;23.564;2022-07-23T14:23:53;-11946.63;;;36.48;21.00
10145;BME280;5113;41.822;23.564;2022-07-23T14:27:00;-11962.47;;;37.04;20.42
10145;BME280;5113;41.822;23.564;2022-07-23T14:30:10;-11935.75;;;36.09;21.30
10145;BME280;5113;41.822;23.564;2022-07-23T14:33:17;-11966.28;;;37.18;20.74
10145;BME280;5113;41.822;23.564;2022-07-23T14:36:25;-11947.91;;;36.52;20.71
10145;BME280;5113;41.822;23.564;2022-07-23T14:39:32;-11943.53;;;36.36;20.71
10145;BME280;5113;41.822;23.564;2022-07-23T14:42:38;-11962.16;;;37.03;20.98
10145;BME280;5113;41.822;23.564;2022-07-23T14:45:46;-11953.56;;;36.72;21.52
10145;BME280;5113;41.822;23.564;2022-07-23T14:48:53;-11956.09;;;36.82;20.76
10145;BME280;5113;41.822;23.564;2022-07-23T14:52:00;-11949.16;;;36.57;21.61
10145;BME280;5113;41.822;23.564;2022-07-23T14:55:06;-11948.47;;;36.54;21.87
10145;BME280;5113;41.822;23.564;2022-07-23T14:58:13;-11949.16;;;36.57;20.97
10145;BME280;5113;41.822;23.564;2022-07-23T15:01:21;-11980.12;;;37.68;20.40
10145;BME280;5113;41.822;23.564;2022-07-23T15:04:27;-11960.34;;;36.97;21.18
10145;BME280;5113;41.822;23.564;2022-07-23T15:07:42;-11929.53;;;35.86;21.93
10145;BME280;5113;41.822;23.564;2022-07-23T15:10:48;-11911.84;;;35.23;22.27
10145;BME280;5113;41.822;23.564;2022-07-23T15:13:54;-11918.78;;;35.48;21.52
10145;BME280;5113;41.822;23.564;2022-07-23T15:17:02;-11928.13;;;35.81;21.94
10145;BME280;5113;41.822;23.564;2022-07-23T15:20:09;-11937.16;;;36.14;21.50
10145;BME280;5113;41.822;23.564;2022-07-23T15:23:18;-11931.50;;;35.93;21.31
10145;BME280;5113;41.822;23.564;2022-07-23T15:26:25;-11925.72;;;35.72;21.16
10145;BME280;5113;41.822;23.564;2022-07-23T15:29:31;-11938.00;;;36.17;21.60
10145;BME280;5113;41.822;23.564;2022-07-23T15:32:38;-11933.19;;;35.99;21.78
10145;BME280;5113;41.822;23.564;2022-07-23T15:35:45;-11918.91;;;35.48;22.30
10145;BME280;5113;41.822;23.564;2022-07-23T15:38:52;-11971.09;;;37.35;20.74
10145;BME280;5113;41.822;23.564;2022-07-23T15:41:58;-11920.75;;;35.55;22.43
10145;BME280;5113;41.822;23.564;2022-07-23T15:45:06;-11898.00;;;34.73;23.32
10145;BME280;5113;41.822;23.564;2022-07-23T15:48:16;-11905.50;;;35.00;24.23
10145;BME280;5113;41.822;23.564;2022-07-23T15:51:24;-11886.56;;;34.32;23.60
10145;BME280;5113;41.822;23.564;2022-07-23T15:54:30;-11889.66;;;34.43;23.44
10145;BME280;5113;41.822;23.564;2022-07-23T15:57:38;-11887.97;;;34.37;24.14
10145;BME280;5113;41.822;23.564;2022-07-23T16:00:44;-11890.38;;;34.46;24.53
10145;BME280;5113;41.822;23.564;2022-07-23T16:03:52;-11886.56;;;34.32;23.64
10145;BME280;5113;41.822;23.564;2022-07-23T16:06:59;-11876.38;;;33.95;24.86
10145;BME280;5113;41.822;23.564;2022-07-23T16:10:06;-11880.75;;;34.11;24.50
10145;BME280;5113;41.822;23.564;2022-07-23T16:13:14;-11872.72;;;33.82;25.34
10145;BME280;5113;41.822;23.564;2022-07-23T16:16:20;-11863.94;;;33.51;26.48
10145;BME280;5113;41.822;23.564;2022-07-23T16:19:30;-11860.28;;;33.37;27.26
10145;BME280;5113;41.822;23.564;2022-07-23T16:22:37;-11851.94;;;33.07;28.68
10145;BME280;5113;41.822;23.564;2022-07-23T16:25:43;-11844.28;;;32.80;29.50